Time;durP1;ratioP1;P1;durP2;ratioP2;P2;SDS_P1;SDS_P2;PMS_P1;PMS_P2;Temp;Humidity;BMP_temperature;BMP_pressure;BME280_temperature;BME280_humidity;BME280_pressure;Samples;Min_cycle;Max_cycle;Signal;HPM_P1;HPM_P2
2022/12/14 00:00:42;;;;;;;0.52;0.52;;;-1.20;99.90;;;;;;4996382;28;20483;-83
2022/12/14 00:03:08;;;;;;;0.10;0.10;;;-1.20;99.90;;;;;;4996432;28;20093;-82
2022/12/14 00:05:34;;;;;;;0.28;0.28;;;-1.20;99.90;;;;;;4977179;28;20023;-82
2022/12/14 00:08:00;;;;;;;0.35;0.35;;;-1.20;99.90;;;;;;4995580;28;20145;-85
2022/12/14 00:10:26;;;;;;;0.77;0.77;;;-1.30;99.90;;;;;;4998394;28;20068;-86
2022/12/14 00:12:52;;;;;;;2.45;0.98;;;-1.30;99.90;;;;;;4997174;28;20027;-80
2022/12/14 00:15:18;;;;;;;0.65;0.65;;;-1.30;99.90;;;;;;4994587;28;20014;-81
2022/12/14 00:17:44;;;;;;;0.32;0.32;;;-1.30;99.90;;;;;;4995206;28;20539;-82
2022/12/14 00:20:10;;;;;;;0.10;0.10;;;-1.30;99.90;;;;;;4995317;28;20472;-82
2022/12/14 00:22:36;;;;;;;0.45;0.45;;;-1.40;99.90;;;;;;4977427;28;20034;-82
2022/12/14 00:25:03;;;;;;;0.43;0.43;;;-1.40;99.90;;;;;;4995322;28;20028;-82
2022/12/14 00:27:29;;;;;;;0.40;0.40;;;-1.40;99.90;;;;;;4996513;28;20026;-82
2022/12/14 00:29:54;;;;;;;0.20;0.20;;;-1.40;99.90;;;;;;4998557;28;20672;-81
2022/12/14 00:32:20;;;;;;;0.10;0.10;;;-1.40;99.90;;;;;;4996289;28;20034;-83
2022/12/14 00:34:46;;;;;;;0.50;0.50;;;-1.40;99.90;;;;;;4996349;28;20025;-84
2022/12/14 00:37:12;;;;;;;12.02;1.92;;;-1.50;99.90;;;;;;4996323;28;20062;-83
2022/12/14 00:39:38;;;;;;;0.32;0.32;;;-1.50;99.90;;;;;;4984441;28;20107;-82
2022/12/14 00:42:03;;;;;;;0.50;0.50;;;-1.50;99.90;;;;;;5003785;28;20033;-88
2022/12/14 00:44:30;;;;;;;0.70;0.70;;;-1.60;99.90;;;;;;4999820;28;20072;-87
2022/12/14 00:46:56;;;;;;;0.10;0.10;;;-1.60;99.90;;;;;;5003737;28;20068;-85
2022/12/14 00:49:21;;;;;;;0.20;0.20;;;-1.60;99.90;;;;;;5004147;28;20077;-86
2022/12/14 00:51:47;;;;;;;0.10;0.10;;;-1.60;99.90;;;;;;4974238;28;20026;-85
2022/12/14 00:54:13;;;;;;;0.10;0.10;;;-1.60;99.90;;;;;;4994706;28;20097;-85
2022/12/14 00:56:39;;;;;;;0.20;0.20;;;-1.60;99.90;;;;;;5003292;28;20498;-85
2022/12/14 00:59:05;;;;;;;0.15;0.15;;;-1.60;99.90;;;;;;4980463;28;20099;-84
2022/12/14 01:01:30;;;;;;;0.57;0.57;;;-1.60;99.90;;;;;;4994364;28;20077;-83
2022/12/14 01:06:42;;;;;;;1.17;1.17;;;-1.60;99.90;;;;;;4973519;28;20571;-81
2022/12/14 01:09:07;;;;;;;3.43;1.60;;;-1.60;99.90;;;;;;4972819;28;20042;-81
2022/12/14 01:11:33;;;;;;;1.05;1.05;;;-1.60;99.90;;;;;;4972143;28;20647;-82
2022/12/14 01:13:59;;;;;;;0.20;0.20;;;-1.50;99.90;;;;;;4973241;28;20496;-84
2022/12/14 01:16:25;;;;;;;0.40;0.40;;;-1.60;99.90;;;;;;4975748;28;20031;-81
2022/12/14 01:18:51;;;;;;;0.52;0.52;;;-1.60;99.90;;;;;;4969258;28;20035;-80
2022/12/14 01:21:20;;;;;;;3.95;1.20;;;-1.60;99.90;;;;;;4974881;28;20037;-82
2022/12/14 01:23:50;;;;;;;0.10;0.10;;;-1.70;99.90;;;;;;4976440;28;20123;-82
2022/12/14 01:26:17;;;;;;;2.05;1.95;;;-1.70;99.90;;;;;;4971889;28;20105;-81
2022/12/14 01:28:43;;;;;;;0.30;0.30;;;-1.80;99.90;;;;;;4971275;28;20046;-83
2022/12/14 01:31:14;;;;;;;1.00;1.00;;;-1.80;99.90;;;;;;4971240;28;20146;-83
2022/12/14 01:33:41;;;;;;;0.17;0.17;;;-1.80;99.90;;;;;;4971139;28;20102;-84
2022/12/14 01:36:10;;;;;;;1.93;1.83;;;-1.80;99.90;;;;;;4992667;28;20502;-83
2022/12/14 01:38:36;;;;;;;0.10;0.10;;;-1.80;99.90;;;;;;4992854;28;20101;-82
2022/12/14 01:41:03;;;;;;;0.10;0.10;;;-1.90;99.90;;;;;;4993815;28;20049;-81
2022/12/14 01:43:52;;;;;;;0.13;0.13;;;-1.90;99.90;;;;;;4998869;28;20022;-80
2022/12/14 01:46:27;;;;;;;0.90;0.90;;;-1.90;99.90;;;;;;4983278;28;20046;-84
2022/12/14 01:48:59;;;;;;;0.10;0.10;;;-1.90;99.90;;;;;;4992772;28;20036;-82
2022/12/14 01:51:27;;;;;;;0.10;0.10;;;-1.90;99.90;;;;;;4992509;28;20069;-83
2022/12/14 01:53:54;;;;;;;0.20;0.20;;;-1.90;99.90;;;;;;4992390;28;20054;-82
2022/12/14 01:56:20;;;;;;;0.10;0.10;;;-1.90;99.90;;;;;;4993412;28;20488;-84
2022/12/14 01:58:46;;;;;;;0.10;0.10;;;-2.00;99.90;;;;;;4993812;28;20033;-87
2022/12/14 02:01:12;;;;;;;0.10;0.10;;;-2.00;99.90;;;;;;4995162;28;20397;-84
2022/12/14 02:03:45;;;;;;;2.55;1.35;;;-2.00;99.90;;;;;;4976887;28;20038;-84
2022/12/14 02:06:18;;;;;;;0.52;0.52;;;-2.00;99.90;;;;;;4992926;28;20059;-83
2022/12/14 02:08:46;;;;;;;0.10;0.10;;;-2.00;99.90;;;;;;4993031;28;20042;-83
2022/12/14 02:11:12;;;;;;;1.10;1.10;;;-2.10;99.90;;;;;;4993195;28;20026;-81
2022/12/14 02:13:40;;;;;;;0.10;0.10;;;-2.20;99.90;;;;;;4993217;28;20037;-85
2022/12/14 02:16:07;;;;;;;0.85;0.85;;;-2.20;99.90;;;;;;4993237;28;20116;-83
2022/12/14 02:18:33;;;;;;;0.20;0.20;;;-2.30;99.90;;;;;;4992980;28;20499;-84
2022/12/14 02:21:30;;;;;;;0.80;0.80;;;-2.40;99.90;;;;;;4994441;28;20027;-83
2022/12/14 02:24:13;;;;;;;0.20;0.20;;;-2.40;99.90;;;;;;5000361;28;20148;-83
2022/12/14 02:26:58;;;;;;;0.10;0.10;;;-2.40;99.90;;;;;;4975829;28;20031;-83
2022/12/14 02:29:24;;;;;;;0.10;0.10;;;-2.40;99.90;;;;;;4992029;28;20423;-83
2022/12/14 02:32:09;;;;;;;0.20;0.20;;;-2.40;99.90;;;;;;4992272;28;20113;-83
2022/12/14 02:35:15;;;;;;;0.10;0.10;;;-2.30;99.90;;;;;;4992324;28;20030;-84
2022/12/14 02:38:05;;;;;;;0.82;0.82;;;-2.30;99.90;;;;;;4992335;28;20030;-83
2022/12/14 02:40:46;;;;;;;0.10;0.10;;;-2.30;99.90;;;;;;4992357;28;20027;-83
2022/12/14 02:43:41;;;;;;;1.08;1.05;;;-2.30;99.90;;;;;;4978649;28;20086;-83
2022/12/14 02:46:31;;;;;;;0.28;0.28;;;-2.30;99.90;;;;;;4980335;28;20057;-84
2022/12/14 02:49:43;;;;;;;0.10;0.10;;;-2.30;99.90;;;;;;5002092;28;20018;-83
2022/12/14 02:52:21;;;;;;;1.13;1.13;;;-2.20;99.90;;;;;;4972135;28;20027;-82
2022/12/14 02:55:15;;;;;;;0.10;0.10;;;-2.20;99.90;;;;;;4994362;28;20353;-82
2022/12/14 02:58:15;;;;;;;0.22;0.22;;;-2.20;99.90;;;;;;5007689;28;20038;-82
2022/12/14 03:00:41;;;;;;;0.25;0.25;;;-2.20;99.90;;;;;;4984747;28;20045;-85
2022/12/14 03:03:07;;;;;;;0.10;0.10;;;-2.20;99.90;;;;;;4993101;28;20047;-84
2022/12/14 03:05:34;;;;;;;0.10;0.10;;;-2.20;99.90;;;;;;4992283;28;20029;-82
2022/12/14 03:08:10;;;;;;;0.20;0.20;;;-2.20;99.90;;;;;;4994796;28;20026;-83
2022/12/14 03:10:51;;;;;;;0.10;0.10;;;-2.30;99.90;;;;;;4995560;28;20287;-83
2022/12/14 03:13:23;;;;;;;0.35;0.35;;;-2.30;99.90;;;;;;4995462;28;20033;-82
2022/12/14 03:16:12;;;;;;;0.30;0.30;;;-2.30;99.90;;;;;;4995416;28;20054;-82
2022/12/14 03:18:46;;;;;;;0.10;0.10;;;-2.30;99.90;;;;;;4995085;28;20030;-83
2022/12/14 03:21:30;;;;;;;0.30;0.30;;;-2.40;99.90;;;;;;4995362;28;20026;-84
2022/12/14 03:23:59;;;;;;;0.20;0.20;;;-2.50;99.90;;;;;;4976339;28;20022;-83
2022/12/14 03:26:52;;;;;;;0.20;0.20;;;-2.50;99.90;;;;;;4983978;28;20097;-83
2022/12/14 03:29:24;;;;;;;0.10;0.10;;;-2.60;99.90;;;;;;4994689;28;20039;-84
2022/12/14 03:32:09;;;;;;;0.10;0.10;;;-2.60;99.90;;;;;;4997242;28;20026;-84
2022/12/14 03:34:41;;;;;;;0.20;0.20;;;-2.60;99.90;;;;;;4997908;28;20049;-83
2022/12/14 03:37:38;;;;;;;0.10;0.10;;;-2.60;99.90;;;;;;4966803;28;20027;-84
2022/12/14 03:40:09;;;;;;;0.40;0.40;;;-2.60;99.90;;;;;;4969066;28;20038;-81
2022/12/14 03:42:49;;;;;;;0.10;0.10;;;-2.60;99.90;;;;;;4994538;28;20078;-80
2022/12/14 03:45:24;;;;;;;0.10;0.10;;;-2.60;99.90;;;;;;4991557;28;20460;-84
2022/12/14 03:47:56;;;;;;;0.30;0.30;;;-2.60;99.90;;;;;;4991228;28;20091;-81
2022/12/14 03:50:24;;;;;;;0.43;0.43;;;-2.50;99.90;;;;;;4995493;28;20421;-82
2022/12/14 03:53:12;;;;;;;0.10;0.10;;;-2.50;99.90;;;;;;4994639;28;20109;-83
2022/12/14 03:55:43;;;;;;;0.10;0.10;;;-2.50;99.90;;;;;;4994692;28;20022;-84
2022/12/14 03:58:27;;;;;;;0.40;0.40;;;-2.60;99.90;;;;;;4994883;28;20018;-83
2022/12/14 04:01:25;;;;;;;0.95;0.95;;;-2.60;99.90;;;;;;4984921;28;20034;-83
2022/12/14 04:03:59;;;;;;;0.10;0.10;;;-2.60;99.90;;;;;;4982773;28;20078;-83
2022/12/14 04:07:02;;;;;;;1.13;1.13;;;-2.60;99.90;;;;;;4994885;28;20034;-83
2022/12/14 04:09:28;;;;;;;0.20;0.20;;;-2.60;99.90;;;;;;4995076;28;20031;-84
2022/12/14 04:21:12;;;;;;;0.60;0.60;;;-2.50;99.90;;;;;;4989510;28;20090;-81
2022/12/14 04:26:36;;;;;;;0.10;0.10;;;-2.50;99.90;;;;;;4986194;28;20116;-82
2022/12/14 04:32:16;;;;;;;0.70;0.70;;;-2.50;99.90;;;;;;4995161;28;20045;-82
2022/12/14 04:34:45;;;;;;;0.10;0.10;;;-2.40;99.90;;;;;;4996610;28;20349;-81
2022/12/14 04:37:15;;;;;;;0.20;0.20;;;-2.40;99.90;;;;;;5012133;28;20085;-83
2022/12/14 04:40:08;;;;;;;0.10;0.10;;;-2.40;99.90;;;;;;4978975;28;20081;-81
2022/12/14 04:42:43;;;;;;;0.10;0.10;;;-2.30;99.90;;;;;;4993951;28;20062;-82
2022/12/14 04:45:27;;;;;;;0.10;0.10;;;-2.30;99.90;;;;;;4992502;28;20457;-83
2022/12/14 04:48:17;;;;;;;0.73;0.73;;;-2.30;99.90;;;;;;4992685;28;20030;-84
2022/12/14 04:50:54;;;;;;;1.17;1.17;;;-2.30;99.90;;;;;;4994802;28;20052;-83
2022/12/14 04:53:24;;;;;;;0.20;0.20;;;-2.30;99.90;;;;;;4995322;28;20021;-83
2022/12/14 04:56:06;;;;;;;0.45;0.45;;;-2.30;99.90;;;;;;4977895;28;20399;-83
2022/12/14 04:58:33;;;;;;;0.63;0.63;;;-2.30;99.90;;;;;;4981589;28;20027;-85
2022/12/14 05:01:11;;;;;;;1.77;0.90;;;-2.30;99.90;;;;;;4998713;28;20026;-85
2022/12/14 05:03:53;;;;;;;0.98;0.98;;;-2.30;99.90;;;;;;4989996;28;20022;-85
2022/12/14 05:06:25;;;;;;;0.10;0.10;;;-2.30;99.90;;;;;;4993821;28;20100;-85
2022/12/14 05:09:11;;;;;;;0.10;0.10;;;-2.30;99.90;;;;;;4993708;28;20100;-86
2022/12/14 05:11:50;;;;;;;0.33;0.33;;;-2.20;99.90;;;;;;4993415;28;20131;-86
2022/12/14 05:14:21;;;;;;;0.55;0.55;;;-2.20;99.90;;;;;;4993506;28;20050;-85
2022/12/14 05:16:48;;;;;;;0.95;0.95;;;-2.20;99.90;;;;;;4993549;28;20030;-86
2022/12/14 05:19:14;;;;;;;0.30;0.30;;;-2.10;99.90;;;;;;4993516;28;20018;-88
2022/12/14 05:21:46;;;;;;;0.10;0.10;;;-2.10;99.90;;;;;;4993195;28;20097;-84
2022/12/14 05:24:12;;;;;;;0.10;0.10;;;-2.10;99.90;;;;;;4989731;28;20023;-84
2022/12/14 05:26:38;;;;;;;0.45;0.45;;;-2.10;99.90;;;;;;4983936;28;20395;-83
2022/12/14 05:29:04;;;;;;;0.20;0.20;;;-2.10;99.90;;;;;;4976354;28;20026;-84
2022/12/14 05:31:30;;;;;;;0.50;0.50;;;-2.10;99.90;;;;;;4993305;28;20034;-83
2022/12/14 05:33:56;;;;;;;0.25;0.25;;;-2.10;99.90;;;;;;4993547;28;20029;-84
2022/12/14 05:36:22;;;;;;;0.10;0.10;;;-2.10;99.90;;;;;;4997013;28;20019;-85
2022/12/14 05:38:50;;;;;;;0.35;0.35;;;-2.10;99.90;;;;;;4993416;28;20030;-84
2022/12/14 05:41:16;;;;;;;0.20;0.20;;;-2.10;99.90;;;;;;4992736;28;20442;-85
2022/12/14 05:43:42;;;;;;;0.73;0.50;;;-2.10;99.90;;;;;;4993895;28;20030;-84
2022/12/14 05:46:10;;;;;;;0.10;0.10;;;-2.10;99.90;;;;;;4988012;28;20484;-85
2022/12/14 05:48:36;;;;;;;0.10;0.10;;;-2.10;99.90;;;;;;4994482;28;20022;-84
2022/12/14 05:51:07;;;;;;;0.75;0.75;;;-2.00;99.90;;;;;;4975376;28;20109;-84
2022/12/14 05:53:34;;;;;;;2.83;2.63;;;-2.00;99.90;;;;;;4995385;28;20038;-84
2022/12/14 05:56:00;;;;;;;0.10;0.10;;;-2.00;99.90;;;;;;4998680;28;20023;-86
2022/12/14 05:58:26;;;;;;;0.10;0.10;;;-2.00;99.90;;;;;;4993542;28;20026;-84
2022/12/14 06:00:52;;;;;;;0.15;0.15;;;-2.00;99.90;;;;;;4992443;28;20030;-83
2022/12/14 06:03:17;;;;;;;0.13;0.13;;;-2.00;99.90;;;;;;4992508;28;20026;-83
2022/12/14 06:05:43;;;;;;;1.48;1.40;;;-2.00;99.90;;;;;;4975240;28;20030;-84
2022/12/14 06:08:09;;;;;;;0.17;0.17;;;-1.90;99.90;;;;;;4975084;28;20034;-84
2022/12/14 06:10:35;;;;;;;0.70;0.70;;;-2.00;99.90;;;;;;4993682;28;20034;-85
2022/12/14 06:13:00;;;;;;;0.47;0.47;;;-2.00;99.90;;;;;;4993051;28;20046;-85
2022/12/14 06:15:27;;;;;;;2.83;2.72;;;-2.00;99.90;;;;;;4997946;28;20045;-84
2022/12/14 06:17:53;;;;;;;1.75;1.17;;;-2.00;99.90;;;;;;5001610;28;20028;-82
2022/12/14 06:20:19;;;;;;;0.10;0.10;;;-2.00;99.90;;;;;;4978877;28;20393;-82
2022/12/14 06:22:45;;;;;;;0.40;0.40;;;-1.90;99.90;;;;;;4969760;28;20442;-85
2022/12/14 06:25:11;;;;;;;0.10;0.10;;;-1.90;99.90;;;;;;4985485;28;20071;-84
2022/12/14 06:27:36;;;;;;;0.28;0.28;;;-1.90;99.90;;;;;;4993203;28;20014;-83
2022/12/14 06:30:02;;;;;;;1.20;1.15;;;-1.80;99.90;;;;;;4992964;28;20620;-85
2022/12/14 06:32:28;;;;;;;0.10;0.10;;;-1.80;99.90;;;;;;4973918;28;20377;-85
2022/12/14 06:35:07;;;;;;;2.65;2.47;;;-1.80;99.90;;;;;;4992565;28;20022;-84
2022/12/14 06:37:32;;;;;;;1.55;0.85;;;-1.80;99.90;;;;;;4974699;28;20062;-85
2022/12/14 06:39:58;;;;;;;1.02;1.02;;;-1.80;99.90;;;;;;4992653;28;20031;-87
2022/12/14 06:42:24;;;;;;;0.40;0.40;;;-1.80;99.90;;;;;;4998162;28;20443;-85
2022/12/14 06:44:53;;;;;;;0.10;0.10;;;-1.80;99.90;;;;;;4997309;28;20050;-85
2022/12/14 06:47:19;;;;;;;1.45;1.45;;;-1.80;99.90;;;;;;4990096;28;20088;-86
2022/12/14 06:49:49;;;;;;;0.10;0.10;;;-1.80;99.90;;;;;;4997316;28;20105;-87
2022/12/14 06:52:15;;;;;;;0.32;0.28;;;-1.80;99.90;;;;;;4997159;28;20026;-86
2022/12/14 06:54:40;;;;;;;0.10;0.10;;;-1.80;99.90;;;;;;4979099;28;20029;-87
2022/12/14 06:57:06;;;;;;;0.10;0.10;;;-1.80;99.90;;;;;;4996176;28;20031;-87
2022/12/14 06:59:32;;;;;;;0.10;0.10;;;-1.80;99.90;;;;;;4979879;28;20484;-85
2022/12/14 07:01:58;;;;;;;0.40;0.40;;;-1.80;99.90;;;;;;4996579;28;20030;-88
2022/12/14 07:04:24;;;;;;;0.28;0.28;;;-1.80;99.90;;;;;;4979326;28;20114;-87
2022/12/14 07:06:50;;;;;;;0.10;0.10;;;-1.80;99.90;;;;;;4996467;28;20026;-85
2022/12/14 07:09:15;;;;;;;0.10;0.10;;;-1.80;99.90;;;;;;4996932;28;20027;-87
2022/12/14 07:11:42;;;;;;;2.03;1.80;;;-1.80;99.90;;;;;;4996339;28;20022;-84
2022/12/14 07:14:14;;;;;;;1.20;1.20;;;-1.80;99.90;;;;;;5000203;28;20085;-84
2022/12/14 07:16:49;;;;;;;1.08;1.08;;;-1.80;99.90;;;;;;4998540;28;20480;-87
2022/12/14 07:19:16;;;;;;;0.10;0.10;;;-1.90;99.90;;;;;;4998052;28;20030;-89
2022/12/14 07:21:42;;;;;;;0.10;0.10;;;-1.90;99.90;;;;;;4981536;28;20042;-89
2022/12/14 07:24:08;;;;;;;0.30;0.30;;;-1.90;99.90;;;;;;4995729;28;20056;-88
2022/12/14 07:26:35;;;;;;;0.10;0.10;;;-1.90;99.90;;;;;;4981871;28;20496;-86
2022/12/14 07:29:01;;;;;;;0.52;0.52;;;-1.90;99.90;;;;;;4991636;28;20030;-84
2022/12/14 07:31:28;;;;;;;0.30;0.30;;;-1.90;99.90;;;;;;4996253;28;20062;-82
2022/12/14 07:33:55;;;;;;;0.10;0.10;;;-1.80;99.90;;;;;;4995717;28;20061;-81
2022/12/14 07:36:26;;;;;;;0.50;0.50;;;-1.80;99.90;;;;;;4995334;28;20022;-84
2022/12/14 07:38:57;;;;;;;0.63;0.63;;;-1.80;99.90;;;;;;4996253;28;20073;-81
2022/12/14 07:41:25;;;;;;;0.10;0.10;;;-1.70;99.90;;;;;;4996899;28;20038;-83
2022/12/14 07:43:54;;;;;;;0.63;0.63;;;-1.70;99.90;;;;;;4995646;28;20484;-84
2022/12/14 07:46:22;;;;;;;0.93;0.93;;;-1.70;99.90;;;;;;4994788;28;20396;-82
2022/12/14 07:48:50;;;;;;;0.70;0.70;;;-1.70;99.90;;;;;;4993128;28;20063;-83
2022/12/14 07:51:19;;;;;;;0.30;0.30;;;-1.70;99.90;;;;;;4994749;28;20101;-82
2022/12/14 07:53:45;;;;;;;0.22;0.22;;;-1.70;99.90;;;;;;4995713;28;20030;-84
2022/12/14 07:56:18;;;;;;;0.10;0.10;;;-1.70;99.90;;;;;;5000153;28;20014;-83
2022/12/14 07:58:44;;;;;;;0.13;0.13;;;-1.80;99.90;;;;;;4993237;28;20096;-83
2022/12/14 08:01:21;;;;;;;0.88;0.82;;;-1.80;99.90;;;;;;4994767;28;20034;-83
2022/12/14 08:03:57;;;;;;;0.10;0.10;;;-1.80;99.90;;;;;;4993975;28;20011;-83
2022/12/14 08:06:28;;;;;;;0.10;0.10;;;-1.70;99.90;;;;;;4976032;28;20033;-82
2022/12/14 08:08:55;;;;;;;2.40;2.20;;;-1.70;99.90;;;;;;4994099;28;20046;-84
2022/12/14 08:11:22;;;;;;;0.63;0.63;;;-1.70;99.90;;;;;;4994439;28;20025;-83
2022/12/14 08:13:59;;;;;;;0.10;0.10;;;-1.70;99.90;;;;;;4976881;28;20034;-85
2022/12/14 08:16:25;;;;;;;0.10;0.10;;;-1.70;99.90;;;;;;4994418;28;20057;-84
2022/12/14 08:18:56;;;;;;;1.55;0.52;;;-1.70;99.90;;;;;;4994788;28;20411;-85
2022/12/14 08:21:22;;;;;;;0.35;0.35;;;-1.60;99.90;;;;;;4993625;28;20033;-83
2022/12/14 08:23:49;;;;;;;1.42;0.93;;;-1.60;99.90;;;;;;4994450;28;20091;-83
2022/12/14 08:26:16;;;;;;;2.25;2.15;;;-1.60;99.90;;;;;;4983131;28;20018;-84
2022/12/14 08:28:42;;;;;;;4.28;1.70;;;-1.60;99.90;;;;;;4999778;28;20019;-83
2022/12/14 08:31:14;;;;;;;0.70;0.70;;;-1.60;99.90;;;;;;4995301;28;20101;-83
2022/12/14 08:33:41;;;;;;;0.10;0.10;;;-1.60;99.90;;;;;;4994565;28;20052;-84
2022/12/14 08:36:28;;;;;;;0.10;0.10;;;-1.50;99.90;;;;;;4994517;28;20101;-85
2022/12/14 08:38:56;;;;;;;0.15;0.15;;;-1.50;99.90;;;;;;4994872;28;20399;-83
2022/12/14 08:41:23;;;;;;;2.97;2.75;;;-1.40;99.90;;;;;;5001932;28;20117;-84
2022/12/14 08:43:54;;;;;;;0.10;0.10;;;-1.40;99.90;;;;;;4996110;28;20061;-85
2022/12/14 08:46:23;;;;;;;1.58;1.55;;;-1.40;99.90;;;;;;4974832;28;20030;-85
2022/12/14 08:48:51;;;;;;;0.47;0.47;;;-1.30;99.90;;;;;;4985830;28;20076;-85
2022/12/14 08:51:18;;;;;;;1.83;1.73;;;-1.30;99.90;;;;;;4962566;28;20026;-83
2022/12/14 08:53:46;;;;;;;2.45;2.00;;;-1.30;99.90;;;;;;4994479;28;20388;-84
2022/12/14 08:56:14;;;;;;;0.57;0.57;;;-1.20;99.90;;;;;;4975241;28;20030;-84
2022/12/14 08:58:40;;;;;;;1.98;1.88;;;-1.20;99.90;;;;;;4993827;28;20031;-85
2022/12/14 09:01:12;;;;;;;0.30;0.30;;;-1.20;99.90;;;;;;4993430;28;20081;-85
2022/12/14 09:03:39;;;;;;;0.85;0.85;;;-1.20;99.90;;;;;;4994197;28;20030;-85
2022/12/14 09:06:08;;;;;;;1.33;1.33;;;-1.20;99.90;;;;;;4994180;28;20091;-83
2022/12/14 09:08:35;;;;;;;0.10;0.10;;;-1.20;99.90;;;;;;4976039;28;20038;-84
2022/12/14 09:11:02;;;;;;;0.20;0.20;;;-1.20;99.90;;;;;;4993874;28;20030;-84
2022/12/14 09:13:28;;;;;;;0.82;0.82;;;-1.20;99.90;;;;;;4992412;28;20089;-85
2022/12/14 09:16:15;;;;;;;1.70;1.58;;;-1.20;99.90;;;;;;4993281;28;20034;-85
2022/12/14 09:18:41;;;;;;;0.65;0.65;;;-1.20;99.90;;;;;;4993419;28;20338;-85
2022/12/14 09:21:08;;;;;;;2.25;2.15;;;-1.30;99.90;;;;;;4993526;28;20037;-84
2022/12/14 09:23:34;;;;;;;0.20;0.20;;;-1.40;99.90;;;;;;4993800;28;20464;-85
2022/12/14 09:26:20;;;;;;;4.55;2.72;;;-1.40;99.90;;;;;;4980290;28;20113;-85
2022/12/14 09:28:49;;;;;;;0.43;0.43;;;-1.40;99.90;;;;;;4993096;28;20034;-83
2022/12/14 09:31:19;;;;;;;0.10;0.10;;;-1.30;99.90;;;;;;4993323;28;20034;-84
2022/12/14 09:33:45;;;;;;;1.17;0.63;;;-1.30;99.90;;;;;;4994627;28;20030;-83
2022/12/14 09:36:17;;;;;;;1.38;1.27;;;-1.30;99.90;;;;;;4996439;28;20022;-84
2022/12/14 09:38:43;;;;;;;0.40;0.40;;;-1.20;99.90;;;;;;5008008;28;20022;-83
2022/12/14 09:41:21;;;;;;;1.60;1.50;;;-1.20;99.90;;;;;;4992714;28;20031;-84
2022/12/14 09:44:10;;;;;;;1.77;1.67;;;-1.20;99.90;;;;;;4991730;28;20338;-85
2022/12/14 09:46:38;;;;;;;0.10;0.10;;;-1.10;99.90;;;;;;4975377;28;20041;-84
2022/12/14 09:49:08;;;;;;;5.85;2.40;;;-1.10;99.90;;;;;;4992767;28;20113;-84
2022/12/14 09:51:36;;;;;;;0.40;0.40;;;-1.20;99.90;;;;;;4992430;28;20023;-85
2022/12/14 09:54:10;;;;;;;0.40;0.40;;;-1.20;99.90;;;;;;4975748;28;20117;-85
2022/12/14 09:56:37;;;;;;;0.28;0.28;;;-1.30;99.90;;;;;;4975114;28;20480;-84
2022/12/14 09:59:04;;;;;;;0.45;0.45;;;-1.30;99.90;;;;;;4992989;28;20041;-85
2022/12/14 10:01:53;;;;;;;0.43;0.43;;;-1.40;99.90;;;;;;4990000;28;20069;-84
2022/12/14 10:04:51;;;;;;;0.22;0.22;;;-1.40;99.90;;;;;;4988442;28;20105;-84
2022/12/14 10:07:32;;;;;;;0.10;0.10;;;-1.30;99.90;;;;;;5000653;28;20042;-84
2022/12/14 10:10:18;;;;;;;0.93;0.93;;;-1.30;99.90;;;;;;5004150;28;20027;-83
2022/12/14 10:13:03;;;;;;;0.10;0.10;;;-1.40;99.90;;;;;;4994836;28;20026;-84
2022/12/14 10:15:41;;;;;;;0.35;0.35;;;-1.30;99.90;;;;;;4978375;28;20385;-83
2022/12/14 10:18:40;;;;;;;2.65;1.45;;;-1.30;99.90;;;;;;5011290;28;20023;-83
2022/12/14 10:21:21;;;;;;;0.30;0.30;;;-1.30;99.90;;;;;;4995582;28;20485;-83
2022/12/14 10:24:03;;;;;;;1.27;1.27;;;-1.30;99.90;;;;;;4999621;28;20141;-85
2022/12/14 10:26:44;;;;;;;0.20;0.20;;;-1.30;99.90;;;;;;4988896;28;20029;-85
2022/12/14 10:29:24;;;;;;;0.43;0.38;;;-1.20;99.90;;;;;;5000226;28;20029;-84
2022/12/14 10:32:14;;;;;;;1.85;1.65;;;-1.10;99.90;;;;;;5003359;28;20015;-85
2022/12/14 10:34:42;;;;;;;0.17;0.17;;;-1.10;99.90;;;;;;4998959;28;20102;-84
2022/12/14 10:37:36;;;;;;;0.28;0.28;;;-1.10;99.90;;;;;;4998818;28;20050;-84
2022/12/14 10:40:07;;;;;;;2.10;1.45;;;-1.00;99.90;;;;;;4987322;28;20033;-85
2022/12/14 10:42:59;;;;;;;0.10;0.10;;;-1.00;99.90;;;;;;4998488;28;20097;-84
2022/12/14 10:45:34;;;;;;;0.17;0.17;;;-1.00;99.90;;;;;;4998771;28;20057;-83
2022/12/14 10:48:14;;;;;;;0.28;0.28;;;-0.90;99.90;;;;;;4998597;28;20031;-84
2022/12/14 10:51:00;;;;;;;0.10;0.10;;;-0.90;99.90;;;;;;4999687;28;20042;-85
2022/12/14 10:54:11;;;;;;;8.98;1.85;;;-0.90;99.90;;;;;;4986494;28;20027;-84
2022/12/14 10:56:41;;;;;;;1.77;1.67;;;-0.90;99.90;;;;;;4998368;28;20027;-84
2022/12/14 10:59:28;;;;;;;0.38;0.38;;;-0.90;99.90;;;;;;4998444;28;20546;-84
2022/12/14 11:02:11;;;;;;;0.20;0.20;;;-0.90;99.90;;;;;;4998312;28;20137;-85
2022/12/14 11:05:00;;;;;;;0.40;0.40;;;-0.90;99.90;;;;;;4998875;28;20026;-85
2022/12/14 11:07:32;;;;;;;0.10;0.10;;;-0.90;99.90;;;;;;4998558;28;20090;-85
2022/12/14 11:10:15;;;;;;;3.20;0.95;;;-0.90;99.90;;;;;;4997735;28;20172;-84
2022/12/14 11:12:52;;;;;;;3.20;1.20;;;-0.90;99.90;;;;;;4981041;28;20023;-84
2022/12/14 11:15:30;;;;;;;1.27;1.02;;;-0.90;99.90;;;;;;4981309;28;20109;-84
2022/12/14 11:18:04;;;;;;;0.38;0.38;;;-0.90;99.90;;;;;;5001916;28;20038;-84
2022/12/14 11:20:31;;;;;;;0.10;0.10;;;-0.90;99.90;;;;;;5004883;28;20037;-84
2022/12/14 11:23:08;;;;;;;0.20;0.20;;;-0.90;99.90;;;;;;4999477;28;20046;-84
2022/12/14 11:25:41;;;;;;;0.20;0.20;;;-1.00;99.90;;;;;;4984644;28;20527;-85
2022/12/14 11:28:44;;;;;;;2.28;1.55;;;-1.00;99.90;;;;;;4980664;28;20030;-86
2022/12/14 11:31:19;;;;;;;0.10;0.10;;;-0.90;99.90;;;;;;4996110;28;20041;-84
2022/12/14 11:33:52;;;;;;;0.25;0.25;;;-1.00;99.90;;;;;;4978802;28;20026;-86
2022/12/14 11:36:39;;;;;;;0.10;0.10;;;-1.00;99.90;;;;;;4998936;28;20048;-84
2022/12/14 11:39:20;;;;;;;0.10;0.10;;;-1.00;99.90;;;;;;4977807;28;20114;-84
2022/12/14 11:41:56;;;;;;;0.10;0.10;;;-1.00;99.90;;;;;;4983914;28;20030;-86
2022/12/14 11:44:41;;;;;;;0.10;0.10;;;-1.10;99.90;;;;;;4994998;28;20042;-83
2022/12/14 11:47:16;;;;;;;0.10;0.10;;;-1.10;99.90;;;;;;4996345;28;20057;-85
2022/12/14 11:49:50;;;;;;;0.52;0.52;;;-1.20;99.90;;;;;;4996448;28;20027;-85
2022/12/14 11:52:25;;;;;;;0.10;0.10;;;-1.20;99.90;;;;;;4995104;28;20022;-84
2022/12/14 11:54:51;;;;;;;0.80;0.80;;;-1.30;99.90;;;;;;4995507;28;20023;-84
2022/12/14 11:57:57;;;;;;;0.10;0.10;;;-1.30;99.90;;;;;;4996308;28;20029;-86
2022/12/14 12:00:58;;;;;;;0.20;0.20;;;-1.40;99.90;;;;;;4955722;28;20026;-87
2022/12/14 12:03:35;;;;;;;0.10;0.10;;;-1.40;99.90;;;;;;4973809;28;20416;-84
2022/12/14 12:06:26;;;;;;;0.28;0.28;;;-1.40;99.90;;;;;;4995032;28;20026;-84
2022/12/14 12:09:00;;;;;;;0.10;0.10;;;-1.40;99.90;;;;;;4986071;28;20065;-83
2022/12/14 12:11:30;;;;;;;0.10;0.10;;;-1.40;99.90;;;;;;4996438;28;20551;-85
2022/12/14 12:14:11;;;;;;;0.10;0.10;;;-1.40;99.90;;;;;;4995682;28;20019;-84
2022/12/14 12:16:43;;;;;;;1.05;1.05;;;-1.40;99.90;;;;;;4994698;28;20161;-85
2022/12/14 12:19:36;;;;;;;0.10;0.10;;;-1.40;99.90;;;;;;4994370;28;20026;-84
2022/12/14 12:22:05;;;;;;;0.10;0.10;;;-1.40;99.90;;;;;;4990112;28;20050;-86
2022/12/14 12:24:46;;;;;;;0.10;0.10;;;-1.40;99.90;;;;;;4990631;28;20074;-85
2022/12/14 12:27:14;;;;;;;0.30;0.30;;;-1.40;99.90;;;;;;4989127;28;20110;-85
2022/12/14 12:30:03;;;;;;;0.20;0.20;;;-1.40;99.90;;;;;;4994875;28;20121;-85
2022/12/14 12:32:46;;;;;;;0.10;0.10;;;-1.50;99.90;;;;;;4996492;28;20065;-85
2022/12/14 12:35:36;;;;;;;0.10;0.10;;;-1.50;99.90;;;;;;4997334;28;20022;-84
2022/12/14 12:38:09;;;;;;;0.10;0.10;;;-1.50;99.90;;;;;;4994634;28;20046;-85
2022/12/14 12:41:03;;;;;;;0.80;0.80;;;-1.50;99.90;;;;;;4995233;28;20037;-85
2022/12/14 12:43:36;;;;;;;0.10;0.10;;;-1.60;99.90;;;;;;4947200;28;20042;-85
2022/12/14 12:46:14;;;;;;;0.17;0.17;;;-1.60;99.90;;;;;;4994386;28;20054;-85
2022/12/14 12:48:49;;;;;;;0.20;0.20;;;-1.60;99.90;;;;;;4994450;28;20014;-83
2022/12/14 12:51:21;;;;;;;0.10;0.10;;;-1.70;99.90;;;;;;4994467;28;20089;-84
2022/12/14 12:53:52;;;;;;;0.10;0.10;;;-1.80;99.90;;;;;;4976978;28;20065;-86
2022/12/14 12:56:50;;;;;;;0.47;0.47;;;-1.80;99.90;;;;;;5000110;28;20026;-85
2022/12/14 12:59:23;;;;;;;2.58;2.47;;;-1.90;99.90;;;;;;4992804;28;20030;-85
2022/12/14 13:01:53;;;;;;;0.10;0.10;;;-1.90;99.90;;;;;;5013715;28;20053;-84
2022/12/14 13:04:45;;;;;;;0.20;0.20;;;-1.90;99.90;;;;;;4998671;28;20098;-84
2022/12/14 13:07:13;;;;;;;0.10;0.10;;;-1.90;99.90;;;;;;4915496;29;20036;-84
2022/12/14 13:09:56;;;;;;;0.47;0.47;;;-2.00;99.90;;;;;;4915363;29;20036;-84
2022/12/14 13:12:27;;;;;;;0.10;0.10;;;-2.00;99.90;;;;;;4915059;29;20122;-83
2022/12/14 13:14:56;;;;;;;0.10;0.10;;;-2.00;99.90;;;;;;4915116;29;20047;-86
2022/12/14 13:17:29;;;;;;;0.10;0.10;;;-2.00;99.90;;;;;;4914487;29;20035;-85
2022/12/14 13:19:58;;;;;;;0.10;0.10;;;-2.00;99.90;;;;;;4914454;29;20470;-85
2022/12/14 13:22:30;;;;;;;0.10;0.10;;;-2.10;99.90;;;;;;4914845;29;20129;-83
2022/12/14 13:25:03;;;;;;;0.10;0.10;;;-2.10;99.90;;;;;;4914183;29;20135;-85
2022/12/14 13:27:48;;;;;;;0.30;0.30;;;-2.10;99.90;;;;;;4914504;29;20028;-85
2022/12/14 13:30:37;;;;;;;0.10;0.10;;;-2.10;99.90;;;;;;4914346;29;20036;-84
2022/12/14 13:33:06;;;;;;;0.10;0.10;;;-2.20;99.90;;;;;;4914247;29;20068;-84
2022/12/14 13:36:04;;;;;;;0.55;0.55;;;-2.20;99.90;;;;;;4913949;29;20339;-84
2022/12/14 13:38:57;;;;;;;0.10;0.10;;;-2.20;99.90;;;;;;4913418;29;20063;-83